• Join FlightAware (Why Join?)
  • Login
  • US Flag 
03:10AM EST


 

Airport Tracker/Info


-or-


 

Live Flight TrackerFlight Track Log ✈ TPA723 ✈ 11-May-2013 ✈ KMIA - SVVA / VLN

Flight Track Log - Related Links

Times and Time Zones

All times are in EDT time to prevent confusion due to time zone crossing. See the TPA723 flight status page for this flight to view local times or setup timezone preferences in your user account.

Time Position Orientation Groundspeed Altitude Reporting Facility
EDT Latitude Longitude Course Direction KTS MPH feet Rate Location/Type
11:26AM 25.7836 -80.2742 107° East 188 216 700  Level Miami Center
11:27AM 25.7739 -80.2392 107° East 204 235 1,800 2,340 Climbing Miami Center
11:28AM 25.7389 -80.1206 108° East 256 295 6,100 1,920 Climbing Miami Center
11:29AM 25.7200 -80.0369 104° East 268 308 6,900 1,620 Climbing Miami Center
11:30AM 25.7008 -79.9511 104° East 273 314 9,400 2,040 Climbing Miami Center
11:31AM 25.6819 -79.8561 102° East 293 337 11,000 1,740 Climbing Miami Center
11:32AM 25.6550 -79.7425 105° East 335 386 12,900 2,220 Climbing Miami Center
11:33AM 25.6303 -79.6200 103° East 379 436 15,500 2,400 Climbing Miami Center
11:34AM 25.6011 -79.4925 104° East 401 461 17,800 2,400 Climbing Miami Center
11:35AM 25.5700 -79.3628 105° East 426 490 20,300 2,280 Climbing Miami Center
11:36AM 25.5431 -79.2264 102° East 437 503 22,400 1,920 Climbing Miami Center
11:37AM 25.5117 -79.0853 104° East 454 522 24,200 1,800 Climbing Miami Center
11:38AM 25.4364 -78.9597 124° Southeast 469 540 26,000 1,680 Climbing Miami Center
11:39AM 25.3375 -78.8453 134° Southeast 485 558 27,600 1,800 Climbing Miami Center
11:40AM 25.2472 -78.7244 130° Southeast 504 580 29,700 2,100 Climbing Miami Center
11:41AM 25.1525 -78.6083 132° Southeast 511 588 31,800 1,800 Climbing Miami Center
11:42AM 25.0556 -78.4897 132° Southeast 511 588 33,400 1,320 Climbing Miami Center
11:43AM 24.9586 -78.3717 132° Southeast 511 588 34,500 840 Climbing Miami Center
11:44AM 24.8617 -78.2514 132° Southeast 517 595 35,100 300 Climbing Miami Center
11:45AM 24.7603 -78.1267 132° Southeast 528 608 35,100 -60 Level Miami Center
11:46AM 24.6569 -78.0044 133° Southeast 533 613 35,000 -60 Descending Miami Center
11:47AM 24.5594 -77.8825 131° Southeast 538 619 35,000  Level Miami Center
11:48AM 24.4600 -77.7628 132° Southeast 533 613 35,000  Level Miami Center
11:49AM 24.3644 -77.6481 132° Southeast 528 608 35,000  Level Miami Center
11:50AM 24.2689 -77.5267 131° Southeast 523 602 35,000  Level Miami Center
11:51AM 24.1733 -77.4147 133° Southeast 518 596 35,000  Level Miami Center
11:52AM 24.0775 -77.3006 133° Southeast 518 596 35,000  Level Miami Center
11:53AM 23.9817 -77.1842 132° Southeast 518 596 35,000  Level Miami Center
11:54AM 23.8858 -77.0656 131° Southeast 518 596 35,100  Climbing Miami Center
11:55AM 23.7917 -76.9519 132° Southeast 512 589 35,100  Level Miami Center
11:56AM 23.6936 -76.8361 133° Southeast 512 589 35,100  Level Miami Center
11:57AM 23.5975 -76.7228 133° Southeast 512 589 35,100  Level Miami Center
11:58AM 23.4989 -76.6075 133° Southeast 517 595 35,100  Level Miami Center
11:59AM 23.4006 -76.4900 132° Southeast 517 595 35,100  Level Miami Center
12:00PM 23.3019 -76.3747 133° Southeast 517 595 35,100  Level Miami Center
12:01PM 23.2033 -76.2578 133° Southeast 517 595 35,100  Level Miami Center
12:02PM 23.1047 -76.1406 132° Southeast 517 595 35,100  Level Miami Center
12:03PM 22.9911 -76.0125 134° Southeast 523 602 35,100  Level Miami Center
12:04PM 22.8942 -75.8961 132° Southeast 523 602 35,100  Level Miami Center
12:05PM 22.7933 -75.7797 133° Southeast 523 602 35,100  Level Miami Center
12:06PM 22.6961 -75.6633 132° Southeast 523 602 35,100  Level Miami Center
12:07PM 22.5928 -75.5472 134° Southeast 523 602 35,100  Level Miami Center
12:08PM 22.4958 -75.4336 133° Southeast 523 602 35,100  Level Miami Center
12:09PM 22.3964 -75.3181 133° Southeast 528 608 35,100 -60 Level Miami Center
12:10PM 22.2950 -75.2025 133° Southeast 528 608 35,000 -60 Descending Miami Center
12:11PM 22.1975 -75.0914 133° Southeast 523 602 35,000  Level Miami Center
12:12PM 22.0897 -74.9875 138° Southeast 518 596 35,000  Level Miami Center
12:13PM 21.9800 -74.8883 140° Southeast 518 596 35,100  Climbing Miami Center
12:14PM 21.8722 -74.7869 139° Southeast 518 596 35,000  Descending Miami Center
12:15PM 21.7769 -74.6992 139° Southeast 512 589 35,100  Climbing Miami Center
12:16PM 21.6561 -74.5806 138° Southeast 521 600 35,000 -60 Descending Miami Center
12:17PM 21.5503 -74.4842 140° Southeast 516 594 35,000  Level Miami Center
12:18PM 21.4403 -74.3856 140° Southeast 516 594 35,000  Level Miami Center
12:19PM 21.3300 -74.2853 140° Southeast 511 588 35,000  Level Miami Center
12:20PM 21.2261 -74.1892 139° Southeast 511 588 35,000  Level Miami Center
12:21PM 21.1136 -74.0892 140° Southeast 511 588 35,000  Level Miami Center
12:22PM 21.0053 -73.9892 139° Southeast 511 588 35,000  Level Miami Center
12:23PM 20.8969 -73.8936 141° Southeast 511 588 35,000  Level Miami Center
12:24PM 20.7844 -73.7939 140° Southeast 511 588 35,000  Level Miami Center
12:25PM 20.6994 -73.7161 139° Southeast 511 588 35,000  Level Miami Center
12:26PM 20.5803 -73.6081 140° Southeast 511 588 35,000  Level Miami Center
12:27PM 20.4719 -73.5111 140° Southeast 511 588 35,000  Level Miami Center
12:28PM 20.3614 -73.4119 140° Southeast 511 588 35,000  Level Miami Center
12:29PM 20.2506 -73.3131 140° Southeast 511 588 35,000  Level Miami Center
12:30PM 20.1400 -73.2186 141° Southeast 517 595 35,000  Level Miami Center
12:31PM 20.0089 -73.1428 151° Southeast 517 595 35,000  Level Miami Center
12:33PM 19.8684 -73.0647 152° Southeast  Level FlightAware Approximate
12:40PM 19.0703 -72.6244 152° Southeast  Level FlightAware Approximate
12:41PM 18.9562 -72.5618 153° Southeast  Level FlightAware Approximate
12:42PM 18.8421 -72.4993 153° Southeast  Level FlightAware Approximate
12:43PM 18.7279 -72.4370 153° Southeast  Level FlightAware Approximate
12:44PM 18.6138 -72.3746 153° Southeast  Level FlightAware Approximate
12:45PM 18.4996 -72.3124 153° Southeast  Level FlightAware Approximate
12:46PM 18.3854 -72.2503 153° Southeast  Level FlightAware Approximate
12:47PM 18.2712 -72.1882 153° Southeast  Level FlightAware Approximate
12:48PM 18.1569 -72.1263 153° Southeast  Level FlightAware Approximate
12:49PM 18.0427 -72.0644 153° Southeast  Level FlightAware Approximate
12:50PM 17.9284 -72.0025 153° Southeast  Level FlightAware Approximate
12:51PM 17.8141 -71.9408 153° Southeast  Level FlightAware Approximate
12:52PM 17.6998 -71.8792 153° Southeast  Level FlightAware Approximate
12:53PM 17.5854 -71.8176 153° Southeast  Level FlightAware Approximate
12:54PM 17.4711 -71.7561 153° Southeast  Level FlightAware Approximate
12:55PM 17.3567 -71.6946 153° Southeast  Level FlightAware Approximate
12:56PM 17.2425 -71.6329 153° Southeast  Level FlightAware Approximate
12:57PM 17.1283 -71.5712 153° Southeast  Level FlightAware Approximate
12:58PM 17.0140 -71.5097 153° Southeast  Level FlightAware Approximate
12:59PM 16.8998 -71.4481 153° Southeast  Level FlightAware Approximate
01:00PM 16.7855 -71.3867 153° Southeast  Level FlightAware Approximate
01:01PM 16.6712 -71.3253 153° Southeast  Level FlightAware Approximate
01:02PM 16.5569 -71.2641 153° Southeast  Level FlightAware Approximate
01:03PM 16.4426 -71.2029 153° Southeast  Level FlightAware Approximate
01:04PM 16.3282 -71.1417 153° Southeast  Level FlightAware Approximate
01:05PM 16.2139 -71.0806 153° Southeast  Level FlightAware Approximate
01:06PM 16.0995 -71.0196 153° Southeast  Level FlightAware Approximate
01:07PM 15.9850 -70.9588 153° Southeast  Level FlightAware Approximate
01:08PM 15.8703 -70.8986 153° Southeast  Level FlightAware Approximate
01:09PM 15.7556 -70.8384 153° Southeast  Level FlightAware Approximate
01:10PM 15.6408 -70.7783 153° Southeast  Level FlightAware Approximate
01:11PM 15.5260 -70.7183 153° Southeast  Level FlightAware Approximate
01:12PM 15.4113 -70.6583 153° Southeast  Level FlightAware Approximate
01:13PM 15.2965 -70.5984 153° Southeast  Level FlightAware Approximate
01:14PM 15.1816 -70.5386 153° Southeast  Level FlightAware Approximate
01:15PM 15.0668 -70.4788 153° Southeast  Level FlightAware Approximate
01:16PM 14.9520 -70.4191 153° Southeast  Level FlightAware Approximate
01:17PM 14.8371 -70.3594 153° Southeast  Level FlightAware Approximate
01:18PM 14.7222 -70.2999 153° Southeast  Level FlightAware Approximate
01:19PM 14.6073 -70.2403 153° Southeast  Level FlightAware Approximate
01:20PM 14.4924 -70.1809 153° Southeast  Level FlightAware Approximate
01:21PM 14.3775 -70.1215 153° Southeast  Level FlightAware Approximate
01:22PM 14.2625 -70.0622 153° Southeast  Level FlightAware Approximate
01:23PM 14.1476 -70.0029 153° Southeast  Level FlightAware Approximate
01:24PM 14.0326 -69.9437 153° Southeast  Level FlightAware Approximate
01:25PM 13.9176 -69.8845 153° Southeast  Level FlightAware Approximate
01:26PM 13.8026 -69.8254 153° Southeast  Level FlightAware Approximate
01:27PM 13.6876 -69.7664 153° Southeast  Level FlightAware Approximate
01:28PM 13.5726 -69.7074 154° Southeast  Level FlightAware Approximate
01:29PM 13.4575 -69.6485 154° Southeast  Level FlightAware Approximate
01:30PM 13.3425 -69.5896 154° Southeast  Level FlightAware Approximate
01:31PM 13.2274 -69.5308 154° Southeast  Level FlightAware Approximate
01:32PM 13.1123 -69.4721 154° Southeast  Level FlightAware Approximate
01:33PM 12.9972 -69.4134 154° Southeast  Level FlightAware Approximate
01:34PM 12.8821 -69.3547 154° Southeast  Level FlightAware Approximate
01:35PM 12.7670 -69.2962 154° Southeast  Level FlightAware Approximate
01:36PM 12.6519 -69.2376 154° Southeast  Level FlightAware Approximate
01:37PM 12.5367 -69.1791 154° Southeast  Level FlightAware Approximate
01:38PM 12.4216 -69.1207 154° Southeast  Level FlightAware Approximate
01:39PM 12.3064 -69.0623 154° Southeast  Level FlightAware Approximate
01:40PM 12.1912 -69.0040 154° Southeast  Level FlightAware Approximate
01:41PM 12.0787 -68.9406 150° Southeast  Level FlightAware Approximate
01:42PM 11.9656 -68.8782 152° Southeast  Level FlightAware Approximate
01:43PM 11.8517 -68.8175 154° Southeast  Level FlightAware Approximate
01:44PM 11.7362 -68.7598 154° Southeast  Level FlightAware Approximate
01:45PM 11.6208 -68.7021 154° Southeast  Level FlightAware Approximate
01:46PM 11.5060 -68.6433 149° Southeast  Level FlightAware Approximate
01:47PM 11.3964 -68.5748 149° Southeast  Level FlightAware Approximate
01:48PM 11.2817 -68.5158 154° Southeast  Level FlightAware Approximate
01:49PM 11.1663 -68.4581 154° Southeast  Level FlightAware Approximate
01:50PM 11.0509 -68.4004 154° Southeast  Level FlightAware Approximate
01:51PM 10.9356 -68.3428 154° Southeast  Level FlightAware Approximate
01:52PM 10.8209 -68.2838 151° Southeast  Level FlightAware Approximate
01:53PM 10.7080 -68.2211 151° Southeast  Level FlightAware Approximate
01:54PM 10.5948 -68.1593 152° Southeast  Level FlightAware Approximate
01:55PM 10.4788 -68.1040 162° South  Level FlightAware Approximate
01:56PM 10.3699 -68.0355 147° Southeast  Level FlightAware Approximate
01:57PM 10.2550 -67.9858 154° Southeast  Level FlightAware Approximate
01:58PM 10.1500 -67.9167 144° Southeast  Level FlightAware Approximate
01:59PM 10.1497 -67.9284 144° Southeast  Level Estimated
02:00PM 10.1497 -67.9284 144° Southeast  Level Estimated
02:01PM 10.1497 -67.9284 144° Southeast  Level Estimated
02:02PM 10.1497 -67.9284 144° Southeast  Level Estimated
02:03PM 10.1497 -67.9284 144° Southeast  Level Estimated
02:04PM 10.1497 -67.9284 144° Southeast  Level Estimated
02:05PM 10.1497 -67.9284 144° Southeast  Level Estimated
02:06PM 10.1497 -67.9284 144° Southeast  Level Estimated
02:07PM 10.1497 -67.9284 144° Southeast  Level Estimated
02:08PM 10.1497 -67.9284 144° Southeast  Level Estimated
02:09PM 10.1497 -67.9284 144° Southeast  Level Estimated
02:10PM 10.1497 -67.9284 144° Southeast  Level Estimated
02:11PM 10.1497 -67.9284 144° Southeast  Level Estimated
02:12PM 10.1497 -67.9284 144° Southeast  Level Estimated
02:13PM 10.1497 -67.9284 144° Southeast  Level Estimated
02:14PM 10.1497 -67.9284 144° Southeast  Level Estimated
02:15PM 10.1497 -67.9284 144° Southeast  Level Estimated
02:16PM 10.1497 -67.9284 144° Southeast  Level Estimated
02:17PM 10.1497 -67.9284 144° Southeast  Level Estimated